Nearby METAR Reports

 

YSRI - Richmond (aus-Af, Australia
Distance from station: WSW 35km
Updated: 22/01/2018 10:30
Clear
Clear
 Wind from W
Wind: W 4 km/h
Temperature: 29°C
Heat Index: 29°C
Dew Point: 17°C
Humidity: 48%
Barometer: 1009 hPa
Clouds: Clear
Visibility: 10 km
2018/01/21 23:30 YSRI 212330Z AUTO 27002KT 9999 // NCD 29/17 Q1009 RF00.0/000.0 PRESENT WEATHER SENSOR US
YSSY - Sydney Intl Airp, Australia
Distance from station: S 47km
Updated: 22/01/2018 10:30
Clear
Clear
 Wind from WNW
Wind: WNW 13 km/h
Temperature: 31°C
Heat Index: 33°C
Dew Point: 20°C
Humidity: 52%
Barometer: 1009 hPa
Summary: Clear
Visibility: greater than 10 km
2018/01/21 23:30 YSSY 212330Z 30007KT CAVOK 31/20 Q1009 FM0100 04013KT CAVOK
YWLM - Williamtown Arp, Australia
Distance from station: NE 104km
Updated: 22/01/2018 11:00
Clear
Clear
 Wind from N
Wind: N 6 km/h
Temperature: 33°C
Dew Point: 16°C
Humidity: 36%
Barometer: 1010 hPa
Summary: Clear
Visibility: greater than 10 km
2018/01/22 00:00 YWLM 220000Z 01003KT CAVOK 33/16 Q1010
 
YSNW - Nowra (aus-Navy), Australia
Distance from station: SSW 168km
Updated: 22/01/2018 10:00
Clear
Clear
 Wind from ESE
Wind: ESE 9 km/h
Temperature: 27°C
Heat Index: 28°C
Dew Point: 19°C
Humidity: 62%
Barometer: 1008 hPa
Summary: Clear
Visibility: greater than 10 km
2018/01/21 23:00 YSNW 212300Z 11005KT CAVOK 27/19 Q1008 NOSIG
YMDG - Mudgee Arpt, Australia
Distance from station: NW 177km
Updated: 22/01/2018 11:00
Clear
Clear
 Wind from NW
Wind: NW 17 km/h
Temperature: 31°C
Dew Point: 12°C
Humidity: 31%
Barometer: 1013 hPa
Clouds: Clear
Visibility: 10 km
2018/01/22 00:00 YMDG 220000Z AUTO 31009KT 9999 // NCD 31/12 Q1013
YTRE - Taree Airport, Australia
Distance from station: NE 224km
Updated: 22/01/2018 11:00
Clear
Clear
 Wind from ENE
Wind: ENE 13 km/h
Temperature: 30°C
Heat Index: 31°C
Dew Point: 18°C
Humidity: 49%
Barometer: 1011 hPa
Clouds: Clear
2018/01/22 00:00 YTRE 220000Z AUTO 07007KT 020V100 //// // NCD 30/18 Q1011
 
YSCB - Canberra (civ/Mi, Australia
Distance from station: SW 265km
Updated: 22/01/2018 10:30
Clear
Clear
 Wind from WNW
Wind: WNW 9 km/h
Temperature: 29°C
Dew Point: 9°C
Humidity: 29%
Barometer: 1012 hPa
Summary: Clear
Visibility: greater than 10 km
2018/01/21 23:30 YSCB 212330Z 30005KT 260V330 CAVOK 29/09 Q1012 FM2330 MOD TURB BLW 5000FT TILL 2400
YSTW - Tamworth Airport, Australia
Distance from station: N 275km
Updated: 22/01/2018 11:00
Clear
Clear
 Wind from NW
Wind: NW 9 km/h
Temperature: 32°C
Dew Point: 12°C
Humidity: 29%
Barometer: 1013 hPa
Clouds: Clear
Visibility: 10 km
2018/01/22 00:00 YSTW 220000Z AUTO 31005KT 220V010 9999 // NCD 32/12 Q1013
YSDU - Dubbo, Australia
Distance from station: WNW 280km
Updated: 22/01/2018 10:30
Clear
Clear
 Wind from N
Wind: N 31 km/h
Temperature: 33°C
Dew Point: 12°C
Humidity: 28%
Barometer: 1012 hPa
Clouds: Clear
Visibility: 10 km
2018/01/21 23:30 YSDU 212330Z AUTO 36017KT 9999 // NCD 33/12 Q1012 RF00.0/000.0
 
YPMQ - Port Macquarie, Australia
Distance from station: NE 284km
Updated: 21/01/2018 05:13
NOT Current
Partly cloudy
Partly cloudy
 Wind from calm
Wind: Calm
Temperature: 16°C
Dew Point: 16°C
Humidity: 100%
Barometer: 1013 hPa
Clouds: Partly cloudy
Visibility: 10 km
Cloud details: Partly cloudy 1036 m
2018/01/20 18:13 YPMQ 201813Z AUTO 00000KT 9999 // SCT034 16/16 Q1013
YCBB - Coonabarabran, Australia
Distance from station: NW 300km
Updated: 22/01/2018 10:00

 Wind from NNW
Wind: NNW 26 km/h
Temperature: 28°C
Heat Index: 28°C
Dew Point: 14°C
Humidity: 42%
Barometer: 1014 hPa
2018/01/21 23:00 YCBB 212300Z AUTO 34014KT //// // ////// 28/14 Q1014